sensor_id;sensor_type;location;lat;lon;timestamp;temperature;humidity
9446;DHT22;4761;49.490;10.908;2023-03-01T00:00:54;15.80;33.70
9446;DHT22;4761;49.490;10.908;2023-03-01T00:03:20;15.90;33.80
9446;DHT22;4761;49.490;10.908;2023-03-01T00:05:46;15.90;33.80
9446;DHT22;4761;49.490;10.908;2023-03-01T00:08:11;15.90;33.80
9446;DHT22;4761;49.490;10.908;2023-03-01T00:10:37;15.90;33.80
9446;DHT22;4761;49.490;10.908;2023-03-01T00:13:02;15.90;33.80
9446;DHT22;4761;49.490;10.908;2023-03-01T00:15:31;15.80;33.80
9446;DHT22;4761;49.490;10.908;2023-03-01T00:17:56;15.80;33.80
9446;DHT22;4761;49.490;10.908;2023-03-01T00:20:22;15.90;33.90
9446;DHT22;4761;49.490;10.908;2023-03-01T00:22:48;15.90;34.00
9446;DHT22;4761;49.490;10.908;2023-03-01T00:25:13;15.80;33.80
9446;DHT22;4761;49.490;10.908;2023-03-01T00:27:39;15.80;33.80
9446;DHT22;4761;49.490;10.908;2023-03-01T00:30:04;15.80;33.80
9446;DHT22;4761;49.490;10.908;2023-03-01T00:32:30;15.80;33.80
9446;DHT22;4761;49.490;10.908;2023-03-01T00:34:56;15.80;33.90
9446;DHT22;4761;49.490;10.908;2023-03-01T00:37:23;15.80;33.90
9446;DHT22;4761;49.490;10.908;2023-03-01T00:39:48;15.80;33.90
9446;DHT22;4761;49.490;10.908;2023-03-01T00:42:15;15.80;33.90
9446;DHT22;4761;49.490;10.908;2023-03-01T00:44:41;15.80;33.90
9446;DHT22;4761;49.490;10.908;2023-03-01T00:47:06;15.80;33.90
9446;DHT22;4761;49.490;10.908;2023-03-01T00:49:32;15.80;34.00
9446;DHT22;4761;49.490;10.908;2023-03-01T00:51:57;15.80;34.00
9446;DHT22;4761;49.490;10.908;2023-03-01T00:54:23;15.80;33.90
9446;DHT22;4761;49.490;10.908;2023-03-01T00:56:48;15.80;34.00
9446;DHT22;4761;49.490;10.908;2023-03-01T00:59:14;15.80;33.90
9446;DHT22;4761;49.490;10.908;2023-03-01T01:01:39;15.80;33.90
9446;DHT22;4761;49.490;10.908;2023-03-01T01:04:07;15.80;34.00
9446;DHT22;4761;49.490;10.908;2023-03-01T01:06:44;15.70;33.80
9446;DHT22;4761;49.490;10.908;2023-03-01T01:09:12;15.80;34.10
9446;DHT22;4761;49.490;10.908;2023-03-01T01:11:46;15.80;34.10
9446;DHT22;4761;49.490;10.908;2023-03-01T01:14:12;15.80;34.00
9446;DHT22;4761;49.490;10.908;2023-03-01T01:16:38;15.80;33.90
9446;DHT22;4761;49.490;10.908;2023-03-01T01:19:04;15.70;34.00
9446;DHT22;4761;49.490;10.908;2023-03-01T01:21:30;15.70;34.00
9446;DHT22;4761;49.490;10.908;2023-03-01T01:23:56;15.70;34.00
9446;DHT22;4761;49.490;10.908;2023-03-01T01:26:27;15.80;34.10
9446;DHT22;4761;49.490;10.908;2023-03-01T01:28:54;15.70;34.00
9446;DHT22;4761;49.490;10.908;2023-03-01T01:31:20;15.70;34.10
9446;DHT22;4761;49.490;10.908;2023-03-01T01:33:49;15.70;34.00
9446;DHT22;4761;49.490;10.908;2023-03-01T01:36:14;15.70;34.10
9446;DHT22;4761;49.490;10.908;2023-03-01T01:38:40;15.70;34.60
9446;DHT22;4761;49.490;10.908;2023-03-01T01:41:08;15.70;34.00
9446;DHT22;4761;49.490;10.908;2023-03-01T01:43:39;15.70;33.90
9446;DHT22;4761;49.490;10.908;2023-03-01T01:48:48;15.80;34.00
9446;DHT22;4761;49.490;10.908;2023-03-01T01:51:24;15.70;33.90
9446;DHT22;4761;49.490;10.908;2023-03-01T01:53:55;15.70;34.00
9446;DHT22;4761;49.490;10.908;2023-03-01T01:56:24;15.70;34.00
9446;DHT22;4761;49.490;10.908;2023-03-01T01:58:50;15.70;34.70
9446;DHT22;4761;49.490;10.908;2023-03-01T02:01:16;15.70;34.10
9446;DHT22;4761;49.490;10.908;2023-03-01T02:03:43;15.70;34.70
9446;DHT22;4761;49.490;10.908;2023-03-01T02:08:38;15.70;34.10
9446;DHT22;4761;49.490;10.908;2023-03-01T02:11:05;15.70;34.00
9446;DHT22;4761;49.490;10.908;2023-03-01T02:13:32;15.70;34.00
9446;DHT22;4761;49.490;10.908;2023-03-01T02:15:58;15.60;34.00
9446;DHT22;4761;49.490;10.908;2023-03-01T02:18:25;15.60;34.00
9446;DHT22;4761;49.490;10.908;2023-03-01T02:21:05;15.70;33.90
9446;DHT22;4761;49.490;10.908;2023-03-01T02:23:33;15.70;34.00
9446;DHT22;4761;49.490;10.908;2023-03-01T02:26:29;15.70;34.00
9446;DHT22;4761;49.490;10.908;2023-03-01T02:28:58;15.60;33.90
9446;DHT22;4761;49.490;10.908;2023-03-01T02:31:24;15.70;34.00
9446;DHT22;4761;49.490;10.908;2023-03-01T02:34:19;15.60;34.00
9446;DHT22;4761;49.490;10.908;2023-03-01T02:36:49;15.70;34.00
9446;DHT22;4761;49.490;10.908;2023-03-01T02:39:25;15.70;34.10
9446;DHT22;4761;49.490;10.908;2023-03-01T02:41:53;15.60;34.00
9446;DHT22;4761;49.490;10.908;2023-03-01T02:44:20;15.60;33.90
9446;DHT22;4761;49.490;10.908;2023-03-01T02:46:49;15.60;33.80
9446;DHT22;4761;49.490;10.908;2023-03-01T02:49:19;15.60;34.00
9446;DHT22;4761;49.490;10.908;2023-03-01T02:54:47;15.60;34.70
9446;DHT22;4761;49.490;10.908;2023-03-01T02:57:14;15.60;34.00
9446;DHT22;4761;49.490;10.908;2023-03-01T02:59:40;15.60;34.00
9446;DHT22;4761;49.490;10.908;2023-03-01T03:02:21;15.60;34.00
9446;DHT22;4761;49.490;10.908;2023-03-01T03:05:15;15.60;34.00
9446;DHT22;4761;49.490;10.908;2023-03-01T03:07:44;15.60;34.00
9446;DHT22;4761;49.490;10.908;2023-03-01T03:10:16;15.60;34.20
9446;DHT22;4761;49.490;10.908;2023-03-01T03:12:48;15.60;34.00
9446;DHT22;4761;49.490;10.908;2023-03-01T03:15:13;15.60;34.00
9446;DHT22;4761;49.490;10.908;2023-03-01T03:17:41;15.60;34.00
9446;DHT22;4761;49.490;10.908;2023-03-01T03:20:09;15.60;34.00
9446;DHT22;4761;49.490;10.908;2023-03-01T03:22:38;15.60;34.00
9446;DHT22;4761;49.490;10.908;2023-03-01T03:25:05;15.60;34.00
9446;DHT22;4761;49.490;10.908;2023-03-01T03:27:31;15.70;33.90
9446;DHT22;4761;49.490;10.908;2023-03-01T03:29:57;15.60;33.90
9446;DHT22;4761;49.490;10.908;2023-03-01T03:32:22;15.60;34.00
9446;DHT22;4761;49.490;10.908;2023-03-01T03:34:48;15.60;34.00
9446;DHT22;4761;49.490;10.908;2023-03-01T03:37:14;15.60;34.00
9446;DHT22;4761;49.490;10.908;2023-03-01T03:40:00;15.70;34.00
9446;DHT22;4761;49.490;10.908;2023-03-01T03:42:25;15.60;33.90
9446;DHT22;4761;49.490;10.908;2023-03-01T03:44:51;15.60;33.90
9446;DHT22;4761;49.490;10.908;2023-03-01T03:47:16;15.70;34.00
9446;DHT22;4761;49.490;10.908;2023-03-01T03:49:42;15.70;34.00
9446;DHT22;4761;49.490;10.908;2023-03-01T03:52:08;15.70;34.00
9446;DHT22;4761;49.490;10.908;2023-03-01T03:54:39;15.80;33.90
9446;DHT22;4761;49.490;10.908;2023-03-01T03:57:06;15.70;33.80
9446;DHT22;4761;49.490;10.908;2023-03-01T03:59:31;15.80;33.80
9446;DHT22;4761;49.490;10.908;2023-03-01T04:01:57;15.80;33.80
9446;DHT22;4761;49.490;10.908;2023-03-01T04:04:22;15.80;33.80
9446;DHT22;4761;49.490;10.908;2023-03-01T04:06:48;15.80;33.80
9446;DHT22;4761;49.490;10.908;2023-03-01T04:09:13;15.80;33.70
9446;DHT22;4761;49.490;10.908;2023-03-01T04:11:39;15.70;33.60
9446;DHT22;4761;49.490;10.908;2023-03-01T04:14:04;15.80;33.70
9446;DHT22;4761;49.490;10.908;2023-03-01T04:16:30;15.70;33.80
9446;DHT22;4761;49.490;10.908;2023-03-01T04:18:55;15.70;33.70
9446;DHT22;4761;49.490;10.908;2023-03-01T04:21:21;15.80;33.80
9446;DHT22;4761;49.490;10.908;2023-03-01T04:23:47;15.70;33.70
9446;DHT22;4761;49.490;10.908;2023-03-01T04:26:13;15.70;33.70
9446;DHT22;4761;49.490;10.908;2023-03-01T04:28:41;15.70;33.60
9446;DHT22;4761;49.490;10.908;2023-03-01T04:31:12;15.70;33.70
9446;DHT22;4761;49.490;10.908;2023-03-01T04:33:43;15.70;33.70
9446;DHT22;4761;49.490;10.908;2023-03-01T04:36:09;15.70;33.70
9446;DHT22;4761;49.490;10.908;2023-03-01T04:38:39;15.70;33.70
9446;DHT22;4761;49.490;10.908;2023-03-01T04:41:06;15.70;33.50
9446;DHT22;4761;49.490;10.908;2023-03-01T04:43:32;15.70;33.60
9446;DHT22;4761;49.490;10.908;2023-03-01T04:46:03;15.70;33.60
9446;DHT22;4761;49.490;10.908;2023-03-01T04:48:30;15.70;33.70
9446;DHT22;4761;49.490;10.908;2023-03-01T04:50:56;15.70;33.70
9446;DHT22;4761;49.490;10.908;2023-03-01T04:53:21;15.70;33.60
9446;DHT22;4761;49.490;10.908;2023-03-01T04:55:47;15.60;33.70
9446;DHT22;4761;49.490;10.908;2023-03-01T04:58:12;15.60;33.70
9446;DHT22;4761;49.490;10.908;2023-03-01T05:00:38;15.70;33.80
9446;DHT22;4761;49.490;10.908;2023-03-01T05:03:03;15.70;33.80
9446;DHT22;4761;49.490;10.908;2023-03-01T05:05:32;15.70;33.70
9446;DHT22;4761;49.490;10.908;2023-03-01T05:08:01;15.60;33.70
9446;DHT22;4761;49.490;10.908;2023-03-01T05:10:30;15.70;33.70
9446;DHT22;4761;49.490;10.908;2023-03-01T05:12:56;15.70;33.70
9446;DHT22;4761;49.490;10.908;2023-03-01T05:15:26;15.70;33.70
9446;DHT22;4761;49.490;10.908;2023-03-01T05:17:53;15.70;33.80
9446;DHT22;4761;49.490;10.908;2023-03-01T05:20:20;15.70;33.70
9446;DHT22;4761;49.490;10.908;2023-03-01T05:22:48;15.70;33.70
9446;DHT22;4761;49.490;10.908;2023-03-01T05:25:14;15.60;33.70
9446;DHT22;4761;49.490;10.908;2023-03-01T05:27:39;15.60;33.70
9446;DHT22;4761;49.490;10.908;2023-03-01T05:30:05;15.70;33.70
9446;DHT22;4761;49.490;10.908;2023-03-01T05:32:43;15.70;33.70
9446;DHT22;4761;49.490;10.908;2023-03-01T05:35:10;15.70;33.70
9446;DHT22;4761;49.490;10.908;2023-03-01T05:37:42;15.70;33.70
9446;DHT22;4761;49.490;10.908;2023-03-01T05:40:09;15.70;33.60
9446;DHT22;4761;49.490;10.908;2023-03-01T05:42:41;15.70;33.50
9446;DHT22;4761;49.490;10.908;2023-03-01T05:45:08;15.60;33.50
9446;DHT22;4761;49.490;10.908;2023-03-01T05:47:35;15.60;33.50
9446;DHT22;4761;49.490;10.908;2023-03-01T05:50:01;15.60;33.60
9446;DHT22;4761;49.490;10.908;2023-03-01T05:52:26;15.60;33.70
9446;DHT22;4761;49.490;10.908;2023-03-01T05:54:52;15.60;33.70
9446;DHT22;4761;49.490;10.908;2023-03-01T05:57:17;15.60;33.70
9446;DHT22;4761;49.490;10.908;2023-03-01T05:59:43;15.60;33.60
9446;DHT22;4761;49.490;10.908;2023-03-01T06:02:08;15.70;33.70
9446;DHT22;4761;49.490;10.908;2023-03-01T06:04:34;15.70;33.80
9446;DHT22;4761;49.490;10.908;2023-03-01T06:06:59;15.70;33.70
9446;DHT22;4761;49.490;10.908;2023-03-01T06:09:25;15.60;33.60
9446;DHT22;4761;49.490;10.908;2023-03-01T06:11:51;15.60;33.60
9446;DHT22;4761;49.490;10.908;2023-03-01T06:14:16;15.60;33.60
9446;DHT22;4761;49.490;10.908;2023-03-01T06:16:42;15.70;33.60
9446;DHT22;4761;49.490;10.908;2023-03-01T06:19:07;15.70;33.60
9446;DHT22;4761;49.490;10.908;2023-03-01T06:21:33;15.60;33.60
9446;DHT22;4761;49.490;10.908;2023-03-01T06:23:58;15.60;33.60
9446;DHT22;4761;49.490;10.908;2023-03-01T06:26:24;15.60;33.70
9446;DHT22;4761;49.490;10.908;2023-03-01T06:28:49;15.70;33.70
9446;DHT22;4761;49.490;10.908;2023-03-01T06:31:15;15.60;33.50
9446;DHT22;4761;49.490;10.908;2023-03-01T06:33:41;15.60;34.10
9446;DHT22;4761;49.490;10.908;2023-03-01T06:36:07;15.60;33.50
9446;DHT22;4761;49.490;10.908;2023-03-01T06:38:33;15.60;33.60
9446;DHT22;4761;49.490;10.908;2023-03-01T06:40:58;15.60;33.50
9446;DHT22;4761;49.490;10.908;2023-03-01T06:43:24;15.60;33.60
9446;DHT22;4761;49.490;10.908;2023-03-01T06:45:50;15.70;33.70
9446;DHT22;4761;49.490;10.908;2023-03-01T06:48:15;15.70;33.60
9446;DHT22;4761;49.490;10.908;2023-03-01T06:50:41;15.70;33.70
9446;DHT22;4761;49.490;10.908;2023-03-01T06:53:06;15.70;33.70
9446;DHT22;4761;49.490;10.908;2023-03-01T06:55:32;15.60;33.70
9446;DHT22;4761;49.490;10.908;2023-03-01T06:57:59;15.60;33.70
9446;DHT22;4761;49.490;10.908;2023-03-01T07:00:26;15.60;33.80
9446;DHT22;4761;49.490;10.908;2023-03-01T07:02:51;15.60;33.80
9446;DHT22;4761;49.490;10.908;2023-03-01T07:05:17;15.60;33.90
9446;DHT22;4761;49.490;10.908;2023-03-01T07:07:43;15.60;34.00
9446;DHT22;4761;49.490;10.908;2023-03-01T07:10:09;15.60;34.00
9446;DHT22;4761;49.490;10.908;2023-03-01T07:12:35;15.60;34.00
9446;DHT22;4761;49.490;10.908;2023-03-01T07:15:00;15.60;34.00
9446;DHT22;4761;49.490;10.908;2023-03-01T07:17:26;15.50;28.40
9446;DHT22;4761;49.490;10.908;2023-03-01T07:19:51;15.40;27.40
9446;DHT22;4761;49.490;10.908;2023-03-01T07:22:17;15.30;27.20
9446;DHT22;4761;49.490;10.908;2023-03-01T07:24:43;15.30;27.10
9446;DHT22;4761;49.490;10.908;2023-03-01T07:27:09;15.30;27.10
9446;DHT22;4761;49.490;10.908;2023-03-01T07:29:34;15.40;26.90
9446;DHT22;4761;49.490;10.908;2023-03-01T07:32:02;15.40;26.70
9446;DHT22;4761;49.490;10.908;2023-03-01T07:34:28;15.50;26.50
9446;DHT22;4761;49.490;10.908;2023-03-01T07:36:53;15.60;26.30
9446;DHT22;4761;49.490;10.908;2023-03-01T07:39:19;15.70;26.20
9446;DHT22;4761;49.490;10.908;2023-03-01T07:41:44;15.80;26.00
9446;DHT22;4761;49.490;10.908;2023-03-01T07:44:10;15.90;25.90
9446;DHT22;4761;49.490;10.908;2023-03-01T07:46:36;15.90;25.70
9446;DHT22;4761;49.490;10.908;2023-03-01T07:49:01;16.00;25.60
9446;DHT22;4761;49.490;10.908;2023-03-01T07:51:27;16.10;25.60
9446;DHT22;4761;49.490;10.908;2023-03-01T07:53:53;16.10;25.50
9446;DHT22;4761;49.490;10.908;2023-03-01T07:56:18;16.20;25.40
9446;DHT22;4761;49.490;10.908;2023-03-01T07:58:45;16.20;25.40
9446;DHT22;4761;49.490;10.908;2023-03-01T08:01:13;16.30;25.40
9446;DHT22;4761;49.490;10.908;2023-03-01T08:03:39;16.50;31.90
9446;DHT22;4761;49.490;10.908;2023-03-01T08:06:08;16.60;33.20
9446;DHT22;4761;49.490;10.908;2023-03-01T08:08:34;16.60;33.30
9446;DHT22;4761;49.490;10.908;2023-03-01T08:11:01;16.60;33.50
9446;DHT22;4761;49.490;10.908;2023-03-01T08:13:28;16.50;33.80
9446;DHT22;4761;49.490;10.908;2023-03-01T08:15:53;16.40;33.90
9446;DHT22;4761;49.490;10.908;2023-03-01T08:18:20;16.30;34.00
9446;DHT22;4761;49.490;10.908;2023-03-01T08:20:47;16.20;34.20
9446;DHT22;4761;49.490;10.908;2023-03-01T08:23:12;16.20;34.30
9446;DHT22;4761;49.490;10.908;2023-03-01T08:25:38;16.10;34.20
9446;DHT22;4761;49.490;10.908;2023-03-01T08:28:04;16.10;34.40
9446;DHT22;4761;49.490;10.908;2023-03-01T08:30:30;16.10;34.50
9446;DHT22;4761;49.490;10.908;2023-03-01T08:32:56;16.10;34.40
9446;DHT22;4761;49.490;10.908;2023-03-01T08:35:22;16.10;34.50
9446;DHT22;4761;49.490;10.908;2023-03-01T08:37:47;16.10;34.40
9446;DHT22;4761;49.490;10.908;2023-03-01T08:40:13;16.10;34.40
9446;DHT22;4761;49.490;10.908;2023-03-01T08:42:41;16.10;34.40
9446;DHT22;4761;49.490;10.908;2023-03-01T08:45:09;16.20;34.30
9446;DHT22;4761;49.490;10.908;2023-03-01T08:47:35;16.20;34.10
9446;DHT22;4761;49.490;10.908;2023-03-01T08:50:01;16.20;33.90
9446;DHT22;4761;49.490;10.908;2023-03-01T08:52:26;16.20;33.90
9446;DHT22;4761;49.490;10.908;2023-03-01T08:54:52;16.10;33.80
9446;DHT22;4761;49.490;10.908;2023-03-01T08:57:18;16.10;33.80
9446;DHT22;4761;49.490;10.908;2023-03-01T08:59:43;16.10;33.80
9446;DHT22;4761;49.490;10.908;2023-03-01T09:02:14;16.10;33.90
9446;DHT22;4761;49.490;10.908;2023-03-01T09:04:40;16.10;33.80
9446;DHT22;4761;49.490;10.908;2023-03-01T09:07:07;16.10;33.80
9446;DHT22;4761;49.490;10.908;2023-03-01T09:09:33;16.10;33.70
9446;DHT22;4761;49.490;10.908;2023-03-01T09:11:58;16.10;33.60
9446;DHT22;4761;49.490;10.908;2023-03-01T09:14:24;16.10;33.50
9446;DHT22;4761;49.490;10.908;2023-03-01T09:16:50;16.10;33.50
9446;DHT22;4761;49.490;10.908;2023-03-01T09:19:16;16.10;33.40
9446;DHT22;4761;49.490;10.908;2023-03-01T09:21:42;16.20;33.40
9446;DHT22;4761;49.490;10.908;2023-03-01T09:24:18;16.20;33.20
9446;DHT22;4761;49.490;10.908;2023-03-01T09:26:44;16.20;33.20
9446;DHT22;4761;49.490;10.908;2023-03-01T09:29:11;16.10;33.10
9446;DHT22;4761;49.490;10.908;2023-03-01T09:31:37;16.20;33.00
9446;DHT22;4761;49.490;10.908;2023-03-01T09:34:03;16.20;33.00
9446;DHT22;4761;49.490;10.908;2023-03-01T09:36:28;16.20;33.00
9446;DHT22;4761;49.490;10.908;2023-03-01T09:38:54;16.20;33.00
9446;DHT22;4761;49.490;10.908;2023-03-01T09:46:57;16.20;33.40
9446;DHT22;4761;49.490;10.908;2023-03-01T09:49:43;16.20;33.30
9446;DHT22;4761;49.490;10.908;2023-03-01T09:52:47;16.20;33.40
9446;DHT22;4761;49.490;10.908;2023-03-01T09:55:26;16.20;33.10
9446;DHT22;4761;49.490;10.908;2023-03-01T10:00:50;16.20;33.00
9446;DHT22;4761;49.490;10.908;2023-03-01T10:08:41;16.20;32.90
9446;DHT22;4761;49.490;10.908;2023-03-01T10:11:21;16.20;32.90
9446;DHT22;4761;49.490;10.908;2023-03-01T10:16:55;16.20;33.00
9446;DHT22;4761;49.490;10.908;2023-03-01T10:22:26;16.20;32.90
9446;DHT22;4761;49.490;10.908;2023-03-01T10:24:54;16.30;32.90
9446;DHT22;4761;49.490;10.908;2023-03-01T10:27:34;16.20;32.90
9446;DHT22;4761;49.490;10.908;2023-03-01T10:30:12;16.30;33.10
9446;DHT22;4761;49.490;10.908;2023-03-01T10:32:39;16.30;33.00
9446;DHT22;4761;49.490;10.908;2023-03-01T10:35:19;16.30;33.00
9446;DHT22;4761;49.490;10.908;2023-03-01T10:40:23;16.30;33.00
9446;DHT22;4761;49.490;10.908;2023-03-01T10:42:49;16.30;33.10
9446;DHT22;4761;49.490;10.908;2023-03-01T10:47:41;16.30;32.90
9446;DHT22;4761;49.490;10.908;2023-03-01T10:50:18;16.30;32.70
9446;DHT22;4761;49.490;10.908;2023-03-01T10:52:59;16.30;32.70
9446;DHT22;4761;49.490;10.908;2023-03-01T10:55:36;16.30;33.30
9446;DHT22;4761;49.490;10.908;2023-03-01T10:58:19;16.30;32.70
9446;DHT22;4761;49.490;10.908;2023-03-01T11:01:06;16.30;32.60
9446;DHT22;4761;49.490;10.908;2023-03-01T11:06:40;16.30;32.60
9446;DHT22;4761;49.490;10.908;2023-03-01T11:09:20;16.30;32.60
9446;DHT22;4761;49.490;10.908;2023-03-01T11:11:46;16.40;32.70
9446;DHT22;4761;49.490;10.908;2023-03-01T11:14:20;16.30;32.50
9446;DHT22;4761;49.490;10.908;2023-03-01T11:16:48;16.40;32.60
9446;DHT22;4761;49.490;10.908;2023-03-01T11:19:18;16.30;32.60
9446;DHT22;4761;49.490;10.908;2023-03-01T11:22:13;16.30;33.40
9446;DHT22;4761;49.490;10.908;2023-03-01T11:24:49;16.30;33.50
9446;DHT22;4761;49.490;10.908;2023-03-01T11:29:58;16.40;33.30
9446;DHT22;4761;49.490;10.908;2023-03-01T11:32:28;16.40;33.20
9446;DHT22;4761;49.490;10.908;2023-03-01T11:35:05;16.30;33.00
9446;DHT22;4761;49.490;10.908;2023-03-01T11:37:56;16.40;33.10
9446;DHT22;4761;49.490;10.908;2023-03-01T11:40:33;16.40;33.00
9446;DHT22;4761;49.490;10.908;2023-03-01T11:43:23;16.40;33.00
9446;DHT22;4761;49.490;10.908;2023-03-01T11:46:21;16.40;33.00
9446;DHT22;4761;49.490;10.908;2023-03-01T12:04:03;16.50;33.10
9446;DHT22;4761;49.490;10.908;2023-03-01T12:12:13;16.50;33.10
9446;DHT22;4761;49.490;10.908;2023-03-01T12:18:10;16.50;33.00
9446;DHT22;4761;49.490;10.908;2023-03-01T12:26:31;16.60;32.80
9446;DHT22;4761;49.490;10.908;2023-03-01T12:40:40;16.60;32.50
9446;DHT22;4761;49.490;10.908;2023-03-01T12:46:00;16.60;32.50
9446;DHT22;4761;49.490;10.908;2023-03-01T12:48:31;16.60;32.50
9446;DHT22;4761;49.490;10.908;2023-03-01T12:51:05;16.70;32.70
9446;DHT22;4761;49.490;10.908;2023-03-01T12:53:35;16.60;32.60
9446;DHT22;4761;49.490;10.908;2023-03-01T12:56:06;16.70;32.70
9446;DHT22;4761;49.490;10.908;2023-03-01T12:58:40;16.70;32.70
9446;DHT22;4761;49.490;10.908;2023-03-01T13:01:22;16.70;32.70
9446;DHT22;4761;49.490;10.908;2023-03-01T13:04:08;16.70;32.70
9446;DHT22;4761;49.490;10.908;2023-03-01T13:07:04;16.70;32.80
9446;DHT22;4761;49.490;10.908;2023-03-01T13:09:38;16.70;32.70
9446;DHT22;4761;49.490;10.908;2023-03-01T13:18:41;16.70;32.60
9446;DHT22;4761;49.490;10.908;2023-03-01T13:20:55;16.70;32.60
9446;DHT22;4761;49.490;10.908;2023-03-01T13:26:16;16.70;32.70
9446;DHT22;4761;49.490;10.908;2023-03-01T13:33:54;16.70;32.60
9446;DHT22;4761;49.490;10.908;2023-03-01T13:38:57;16.70;32.70
9446;DHT22;4761;49.490;10.908;2023-03-01T13:46:38;16.70;32.40
9446;DHT22;4761;49.490;10.908;2023-03-01T13:49:03;16.70;32.60
9446;DHT22;4761;49.490;10.908;2023-03-01T13:51:29;16.70;32.70
9446;DHT22;4761;49.490;10.908;2023-03-01T13:53:56;16.70;32.80
9446;DHT22;4761;49.490;10.908;2023-03-01T13:56:27;16.70;32.80
9446;DHT22;4761;49.490;10.908;2023-03-01T13:59:01;16.70;32.80
9446;DHT22;4761;49.490;10.908;2023-03-01T14:01:30;16.70;32.80
9446;DHT22;4761;49.490;10.908;2023-03-01T14:03:56;16.70;33.00
9446;DHT22;4761;49.490;10.908;2023-03-01T14:06:29;16.70;35.40
9446;DHT22;4761;49.490;10.908;2023-03-01T14:11:44;16.70;38.80
9446;DHT22;4761;49.490;10.908;2023-03-01T14:14:25;16.70;40.00
9446;DHT22;4761;49.490;10.908;2023-03-01T14:17:27;16.80;41.60
9446;DHT22;4761;49.490;10.908;2023-03-01T14:20:09;16.70;41.90
9446;DHT22;4761;49.490;10.908;2023-03-01T14:22:36;16.70;42.70
9446;DHT22;4761;49.490;10.908;2023-03-01T14:25:52;16.70;43.30
9446;DHT22;4761;49.490;10.908;2023-03-01T14:30:55;16.70;44.60
9446;DHT22;4761;49.490;10.908;2023-03-01T14:33:33;16.70;44.80
9446;DHT22;4761;49.490;10.908;2023-03-01T14:36:11;16.80;45.40
9446;DHT22;4761;49.490;10.908;2023-03-01T14:38:39;16.80;45.90
9446;DHT22;4761;49.490;10.908;2023-03-01T14:41:25;16.80;46.60
9446;DHT22;4761;49.490;10.908;2023-03-01T14:43:58;16.80;46.80
9446;DHT22;4761;49.490;10.908;2023-03-01T14:46:28;16.90;47.20
9446;DHT22;4761;49.490;10.908;2023-03-01T14:49:02;17.00;47.30
9446;DHT22;4761;49.490;10.908;2023-03-01T14:51:28;17.10;47.40
9446;DHT22;4761;49.490;10.908;2023-03-01T14:53:54;17.10;47.70
9446;DHT22;4761;49.490;10.908;2023-03-01T14:56:20;17.20;48.00
9446;DHT22;4761;49.490;10.908;2023-03-01T14:58:50;17.30;48.10
9446;DHT22;4761;49.490;10.908;2023-03-01T15:01:18;17.30;48.40
9446;DHT22;4761;49.490;10.908;2023-03-01T15:03:46;17.30;48.40
9446;DHT22;4761;49.490;10.908;2023-03-01T15:06:15;17.40;49.00
9446;DHT22;4761;49.490;10.908;2023-03-01T15:08:46;17.40;49.00
9446;DHT22;4761;49.490;10.908;2023-03-01T15:11:31;17.40;48.90
9446;DHT22;4761;49.490;10.908;2023-03-01T15:13:58;17.30;49.40
9446;DHT22;4761;49.490;10.908;2023-03-01T15:16:33;17.20;49.50
9446;DHT22;4761;49.490;10.908;2023-03-01T15:19:06;17.20;51.50
9446;DHT22;4761;49.490;10.908;2023-03-01T15:21:34;17.20;50.10
9446;DHT22;4761;49.490;10.908;2023-03-01T15:26:52;17.20;49.80
9446;DHT22;4761;49.490;10.908;2023-03-01T15:29:25;17.20;50.00
9446;DHT22;4761;49.490;10.908;2023-03-01T15:32:03;17.20;50.30
9446;DHT22;4761;49.490;10.908;2023-03-01T15:34:31;17.10;50.30
9446;DHT22;4761;49.490;10.908;2023-03-01T15:36:59;17.10;50.20
9446;DHT22;4761;49.490;10.908;2023-03-01T15:39:38;17.10;50.10
9446;DHT22;4761;49.490;10.908;2023-03-01T15:42:35;17.00;49.90
9446;DHT22;4761;49.490;10.908;2023-03-01T15:45:11;17.00;49.90
9446;DHT22;4761;49.490;10.908;2023-03-01T15:47:51;17.00;50.10
9446;DHT22;4761;49.490;10.908;2023-03-01T15:50:21;16.90;50.00
9446;DHT22;4761;49.490;10.908;2023-03-01T15:52:47;16.90;50.00
9446;DHT22;4761;49.490;10.908;2023-03-01T15:55:25;16.90;49.90
9446;DHT22;4761;49.490;10.908;2023-03-01T16:00:26;16.80;50.10
9446;DHT22;4761;49.490;10.908;2023-03-01T16:02:51;16.80;50.00
9446;DHT22;4761;49.490;10.908;2023-03-01T16:07:49;16.80;49.90
9446;DHT22;4761;49.490;10.908;2023-03-01T16:10:16;16.80;50.10
9446;DHT22;4761;49.490;10.908;2023-03-01T16:12:41;16.80;49.90
9446;DHT22;4761;49.490;10.908;2023-03-01T16:15:24;16.80;49.70
9446;DHT22;4761;49.490;10.908;2023-03-01T16:17:51;16.80;49.60
9446;DHT22;4761;49.490;10.908;2023-03-01T16:20:20;16.80;49.60
9446;DHT22;4761;49.490;10.908;2023-03-01T16:22:46;16.90;49.90
9446;DHT22;4761;49.490;10.908;2023-03-01T16:25:13;16.80;49.70
9446;DHT22;4761;49.490;10.908;2023-03-01T16:27:42;16.90;49.70
9446;DHT22;4761;49.490;10.908;2023-03-01T16:30:10;16.90;49.60
9446;DHT22;4761;49.490;10.908;2023-03-01T16:32:43;16.90;49.50
9446;DHT22;4761;49.490;10.908;2023-03-01T16:35:11;16.90;49.50
9446;DHT22;4761;49.490;10.908;2023-03-01T16:37:37;16.90;49.20
9446;DHT22;4761;49.490;10.908;2023-03-01T16:40:04;16.90;49.00
9446;DHT22;4761;49.490;10.908;2023-03-01T16:42:36;16.80;48.70
9446;DHT22;4761;49.490;10.908;2023-03-01T16:45:03;16.80;48.60
9446;DHT22;4761;49.490;10.908;2023-03-01T16:47:29;16.80;48.60
9446;DHT22;4761;49.490;10.908;2023-03-01T16:49:55;16.80;48.40
9446;DHT22;4761;49.490;10.908;2023-03-01T16:52:21;16.80;48.30
9446;DHT22;4761;49.490;10.908;2023-03-01T16:54:47;16.80;48.40
9446;DHT22;4761;49.490;10.908;2023-03-01T16:57:13;16.80;48.50
9446;DHT22;4761;49.490;10.908;2023-03-01T16:59:39;16.80;48.40
9446;DHT22;4761;49.490;10.908;2023-03-01T17:02:05;16.80;49.00
9446;DHT22;4761;49.490;10.908;2023-03-01T17:04:32;16.70;48.30
9446;DHT22;4761;49.490;10.908;2023-03-01T17:06:57;16.70;48.40
9446;DHT22;4761;49.490;10.908;2023-03-01T17:09:23;16.70;48.30
9446;DHT22;4761;49.490;10.908;2023-03-01T17:11:49;16.70;48.20
9446;DHT22;4761;49.490;10.908;2023-03-01T17:14:15;16.70;48.20
9446;DHT22;4761;49.490;10.908;2023-03-01T17:16:41;16.70;48.20
9446;DHT22;4761;49.490;10.908;2023-03-01T17:19:07;16.60;48.20
9446;DHT22;4761;49.490;10.908;2023-03-01T17:21:33;16.60;48.20
9446;DHT22;4761;49.490;10.908;2023-03-01T17:23:59;16.60;48.00
9446;DHT22;4761;49.490;10.908;2023-03-01T17:26:24;16.60;48.00
9446;DHT22;4761;49.490;10.908;2023-03-01T17:28:50;16.60;47.90
9446;DHT22;4761;49.490;10.908;2023-03-01T17:31:17;16.60;47.90
9446;DHT22;4761;49.490;10.908;2023-03-01T17:33:43;16.60;47.80
9446;DHT22;4761;49.490;10.908;2023-03-01T17:36:09;16.60;47.70
9446;DHT22;4761;49.490;10.908;2023-03-01T17:38:35;16.60;47.70
9446;DHT22;4761;49.490;10.908;2023-03-01T17:41:02;16.60;47.60
9446;DHT22;4761;49.490;10.908;2023-03-01T17:43:28;16.50;47.40
9446;DHT22;4761;49.490;10.908;2023-03-01T17:45:55;16.60;47.40
9446;DHT22;4761;49.490;10.908;2023-03-01T17:48:21;16.50;47.30
9446;DHT22;4761;49.490;10.908;2023-03-01T17:50:47;16.50;47.30
9446;DHT22;4761;49.490;10.908;2023-03-01T17:53:13;16.50;47.30
9446;DHT22;4761;49.490;10.908;2023-03-01T17:55:40;16.50;47.20